createdAt,value
2023-01-30T00:01:58.008Z,99794.20
2023-01-30T00:04:25.915Z,99792.60
2023-01-30T00:06:53.835Z,99780.80
2023-01-30T00:09:21.775Z,99779.20
2023-01-30T00:11:49.596Z,99779.80
2023-01-30T00:14:17.425Z,99764.00
2023-01-30T00:16:45.410Z,99761.40
2023-01-30T00:19:13.425Z,99760.20
2023-01-30T00:21:41.270Z,99748.00
2023-01-30T00:24:09.252Z,99752.80
2023-01-30T00:26:37.469Z,99747.40
2023-01-30T00:29:05.381Z,99742.60
2023-01-30T00:31:33.417Z,99730.60
2023-01-30T00:34:01.354Z,99725.60
2023-01-30T00:36:29.215Z,99710.80
2023-01-30T00:38:58.534Z,99705.20
2023-01-30T00:41:46.332Z,99703.00
2023-01-30T00:44:33.158Z,99690.80
2023-01-30T00:47:08.974Z,99678.20
2023-01-30T00:49:38.191Z,99672.80
2023-01-30T00:52:06.209Z,99668.80
2023-01-30T00:54:34.975Z,99665.40
2023-01-30T00:57:02.921Z,99656.40
2023-01-30T00:59:30.906Z,99651.60
2023-01-30T01:01:58.806Z,99644.40
2023-01-30T01:04:26.809Z,99642.80
2023-01-30T01:06:54.704Z,99619.20
2023-01-30T01:09:22.650Z,99610.00
2023-01-30T01:11:50.515Z,99607.40
2023-01-30T01:14:18.427Z,99602.80
2023-01-30T01:16:46.485Z,99590.40
2023-01-30T01:19:14.316Z,99582.80
2023-01-30T01:21:42.236Z,99579.00
2023-01-30T01:24:14.645Z,99568.00
2023-01-30T01:26:43.992Z,99568.80
2023-01-30T01:29:15.215Z,99563.00
2023-01-30T01:31:44.407Z,99539.00
2023-01-30T01:34:13.073Z,99531.00
2023-01-30T01:36:56.388Z,99534.20
2023-01-30T01:39:24.189Z,99522.80
2023-01-30T01:41:52.492Z,99520.20
2023-01-30T01:44:20.360Z,99513.00
2023-01-30T01:47:00.035Z,99510.60
2023-01-30T01:49:33.999Z,99503.80
2023-01-30T01:52:13.666Z,99495.00
2023-01-30T01:54:55.030Z,99486.20
2023-01-30T01:57:34.803Z,99478.20
2023-01-30T02:00:13.016Z,99472.60
2023-01-30T02:02:46.435Z,99450.40
2023-01-30T02:05:17.941Z,99442.00
2023-01-30T02:07:48.144Z,99446.40
2023-01-30T02:10:23.405Z,99443.80
2023-01-30T02:12:52.848Z,99433.20
2023-01-30T02:15:21.084Z,99431.80
2023-01-30T02:17:49.013Z,99421.60
2023-01-30T02:20:54.169Z,99421.00
2023-01-30T02:24:01.023Z,99414.40
2023-01-30T02:26:50.282Z,99411.60
2023-01-30T02:30:09.793Z,99412.00
2023-01-30T02:32:58.916Z,99405.20
2023-01-30T02:35:50.218Z,99404.60
2023-01-30T02:38:41.808Z,99397.00
2023-01-30T02:41:56.399Z,99393.20
2023-01-30T02:44:37.562Z,99397.20
2023-01-30T02:47:14.710Z,99386.80
2023-01-30T02:49:52.587Z,99383.20
2023-01-30T02:52:22.662Z,99377.60
2023-01-30T02:54:50.532Z,99381.00
2023-01-30T02:57:27.271Z,99372.80
2023-01-30T03:00:04.839Z,99365.40
2023-01-30T03:03:11.082Z,99358.20
2023-01-30T03:06:28.761Z,99345.40
2023-01-30T03:09:28.123Z,99338.40
2023-01-30T03:12:02.684Z,99331.80
2023-01-30T03:14:42.329Z,99331.20
2023-01-30T03:17:13.123Z,99323.80
2023-01-30T03:19:42.879Z,99308.20
2023-01-30T03:22:10.737Z,99306.60
2023-01-30T03:24:38.735Z,99292.20
2023-01-30T03:27:11.394Z,99277.60
2023-01-30T03:29:40.670Z,99278.20
2023-01-30T03:32:08.637Z,99271.60
2023-01-30T03:34:36.576Z,99264.60
2023-01-30T03:37:05.637Z,99250.60
2023-01-30T03:39:33.769Z,99253.00
2023-01-30T03:42:01.652Z,99245.40
2023-01-30T03:44:29.439Z,99241.40
2023-01-30T03:46:57.296Z,99234.20
2023-01-30T03:49:25.202Z,99230.00
2023-01-30T03:51:53.036Z,99230.00
2023-01-30T03:54:21.108Z,99219.80
2023-01-30T03:56:49.074Z,99215.20
2023-01-30T03:59:16.988Z,99205.80
2023-01-30T04:01:44.867Z,99202.60
2023-01-30T04:04:13.022Z,99206.40
2023-01-30T04:06:40.893Z,99206.40
2023-01-30T04:09:08.790Z,99204.00
2023-01-30T04:11:36.865Z,99196.00
2023-01-30T04:14:04.861Z,99196.80
2023-01-30T04:16:32.735Z,99169.40
2023-01-30T04:19:00.552Z,99176.40
2023-01-30T04:21:28.385Z,99161.20
2023-01-30T04:23:56.381Z,99154.80
2023-01-30T04:26:24.293Z,99149.80
2023-01-30T04:28:52.325Z,99147.80
2023-01-30T04:31:20.350Z,99134.60
2023-01-30T04:33:48.353Z,99129.60
2023-01-30T04:36:16.533Z,99130.40
2023-01-30T04:38:44.442Z,99128.40
2023-01-30T04:41:12.384Z,99127.80
2023-01-30T04:43:40.618Z,99123.60
2023-01-30T04:46:08.406Z,99111.60
2023-01-30T04:48:36.296Z,99108.20
2023-01-30T04:51:04.285Z,99109.00
2023-01-30T04:53:34.908Z,99100.20
2023-01-30T04:56:02.900Z,99091.20
2023-01-30T04:58:30.752Z,99089.40
2023-01-30T05:01:30.389Z,99081.20
2023-01-30T05:03:59.554Z,99076.20
2023-01-30T05:06:28.466Z,99063.20
2023-01-30T05:08:58.080Z,99069.20
2023-01-30T05:11:29.330Z,99058.20
2023-01-30T05:13:57.134Z,99043.60
2023-01-30T05:16:26.180Z,99036.00
2023-01-30T05:18:54.067Z,99039.40
2023-01-30T05:21:30.391Z,99034.00
2023-01-30T05:23:58.720Z,99029.60
2023-01-30T05:26:26.897Z,99026.20
2023-01-30T05:28:57.292Z,99017.80
2023-01-30T05:31:25.627Z,99008.60
2023-01-30T05:33:53.859Z,99003.40
2023-01-30T05:36:23.720Z,98999.00
2023-01-30T05:38:51.590Z,98999.20
2023-01-30T05:41:20.262Z,98990.40
2023-01-30T05:43:51.709Z,98981.00
2023-01-30T05:46:20.112Z,98972.60
2023-01-30T05:48:48.217Z,98972.80
2023-01-30T05:51:19.829Z,98966.20
2023-01-30T05:53:48.753Z,98963.40
2023-01-30T05:56:18.145Z,98968.40
2023-01-30T05:58:55.242Z,98964.60
2023-01-30T06:01:24.013Z,98959.60
2023-01-30T06:03:52.631Z,98958.00
2023-01-30T06:06:22.698Z,98959.20
2023-01-30T06:08:56.210Z,98949.40
2023-01-30T06:11:24.897Z,98948.20
2023-01-30T06:13:52.887Z,98938.60
2023-01-30T06:16:20.953Z,98939.60
2023-01-30T06:18:49.204Z,98925.40
2023-01-30T06:21:17.673Z,98933.40
2023-01-30T06:23:46.540Z,98922.60
2023-01-30T06:26:14.568Z,98927.80
2023-01-30T06:28:43.555Z,98934.00
2023-01-30T06:31:11.756Z,98936.00
2023-01-30T06:33:39.707Z,98927.40
2023-01-30T06:36:08.084Z,98926.60
2023-01-30T06:38:35.994Z,98930.00
2023-01-30T06:41:03.916Z,98924.20
2023-01-30T06:43:31.835Z,98915.80
2023-01-30T06:46:00.411Z,98910.00
2023-01-30T06:48:28.566Z,98906.40
2023-01-30T06:50:56.440Z,98905.60
2023-01-30T06:53:30.409Z,98898.20
2023-01-30T06:55:59.993Z,98898.00
2023-01-30T06:58:28.743Z,98900.80
2023-01-30T07:00:56.881Z,98890.60
2023-01-30T07:03:24.765Z,98893.40
2023-01-30T07:05:52.815Z,98887.40
2023-01-30T07:08:22.513Z,98893.40
2023-01-30T07:10:51.731Z,98885.20
2023-01-30T07:13:19.789Z,98892.00
2023-01-30T07:15:47.732Z,98888.20
2023-01-30T07:18:15.586Z,98892.00
2023-01-30T07:20:48.647Z,98896.20
2023-01-30T07:23:16.943Z,98890.40
2023-01-30T07:25:44.803Z,98885.00
2023-01-30T07:28:12.757Z,98884.60
2023-01-30T07:30:40.762Z,98889.20
2023-01-30T07:33:08.682Z,98886.40
2023-01-30T07:35:38.157Z,98877.60
2023-01-30T07:38:06.468Z,98877.60
2023-01-30T07:40:35.370Z,98871.80
2023-01-30T07:43:12.757Z,98881.40
2023-01-30T07:45:47.705Z,98870.00
2023-01-30T07:48:20.088Z,98869.80
2023-01-30T07:50:48.010Z,98879.40
2023-01-30T07:53:20.710Z,98884.20
2023-01-30T07:55:48.663Z,98886.60
2023-01-30T07:58:17.025Z,98899.20
2023-01-30T08:00:45.506Z,98900.20
2023-01-30T08:03:15.334Z,98894.40
2023-01-30T08:05:46.937Z,98888.40
2023-01-30T08:08:15.834Z,98877.00
2023-01-30T08:10:44.518Z,98871.40
2023-01-30T08:13:12.447Z,98873.00
2023-01-30T08:15:40.403Z,98873.80
2023-01-30T08:18:08.376Z,98869.40
2023-01-30T08:20:37.474Z,98878.40
2023-01-30T08:23:05.593Z,98872.40
2023-01-30T08:25:35.569Z,98861.00
2023-01-30T08:28:04.655Z,98860.80
2023-01-30T08:30:32.765Z,98862.20
2023-01-30T08:33:00.732Z,98864.20
2023-01-30T08:35:28.639Z,98856.00
2023-01-30T08:37:56.439Z,98856.60
2023-01-30T08:40:24.327Z,98860.60
2023-01-30T08:42:52.188Z,98854.20
2023-01-30T08:45:20.186Z,98854.40
2023-01-30T08:47:48.105Z,98860.00
2023-01-30T08:50:16.572Z,98858.00
2023-01-30T08:52:44.705Z,98855.80
2023-01-30T08:55:12.564Z,98843.60
2023-01-30T08:57:40.524Z,98842.60
2023-01-30T09:00:11.158Z,98834.40
2023-01-30T09:02:39.515Z,98839.00
2023-01-30T09:05:08.342Z,98833.20
2023-01-30T09:07:36.195Z,98824.00
2023-01-30T09:10:05.451Z,98819.40
2023-01-30T09:12:33.323Z,98822.20
2023-01-30T09:15:01.353Z,98808.60
2023-01-30T09:17:29.288Z,98811.20
2023-01-30T09:19:57.127Z,98816.00
2023-01-30T09:22:27.629Z,98799.40
2023-01-30T09:24:55.505Z,98795.80
2023-01-30T09:27:23.369Z,98799.00
2023-01-30T09:29:51.334Z,98796.00
2023-01-30T09:32:19.201Z,98782.20
2023-01-30T09:34:47.072Z,98779.80
2023-01-30T09:37:15.165Z,98782.20
2023-01-30T09:39:43.037Z,98773.00
2023-01-30T09:42:52.453Z,98767.60
2023-01-30T09:45:32.376Z,98768.20
2023-01-30T09:48:25.975Z,98775.00
2023-01-30T09:51:00.807Z,98760.40
2023-01-30T09:53:47.769Z,98757.80
2023-01-30T09:56:15.762Z,98761.60
2023-01-30T09:58:59.325Z,98763.40
2023-01-30T10:01:56.232Z,98775.80
2023-01-30T10:04:35.875Z,98766.20
2023-01-30T10:07:13.163Z,98764.60
2023-01-30T10:10:03.078Z,98772.80
2023-01-30T10:12:52.881Z,98768.60
2023-01-30T10:15:47.822Z,98765.60
2023-01-30T10:18:35.235Z,98766.40
2023-01-30T10:21:18.443Z,98754.60
2023-01-30T10:23:58.153Z,98745.20
2023-01-30T10:26:29.066Z,98745.00
2023-01-30T10:29:08.437Z,98744.60
2023-01-30T10:32:08.619Z,98753.20
2023-01-30T10:34:41.661Z,98756.60
2023-01-30T10:37:29.580Z,98760.40
2023-01-30T10:40:28.539Z,98767.60
2023-01-30T10:43:10.162Z,98773.00
2023-01-30T10:45:57.065Z,98773.40
2023-01-30T10:49:11.663Z,98761.60
2023-01-30T10:52:07.784Z,98773.60
2023-01-30T10:54:43.132Z,98766.40
2023-01-30T10:57:39.347Z,98760.60
2023-01-30T11:00:34.289Z,98761.80
2023-01-30T11:03:33.032Z,98768.00
2023-01-30T11:06:07.960Z,98779.20
2023-01-30T11:08:36.382Z,98773.80
2023-01-30T11:11:39.735Z,98762.60
2023-01-30T11:14:10.976Z,98748.20
2023-01-30T11:16:55.528Z,98740.00
2023-01-30T11:19:34.525Z,98729.00
2023-01-30T11:22:05.627Z,98724.00
2023-01-30T11:24:40.305Z,98714.20
2023-01-30T11:27:25.062Z,98706.20
2023-01-30T11:30:21.092Z,98709.80
2023-01-30T11:32:53.469Z,98707.60
2023-01-30T11:35:29.052Z,98699.80
2023-01-30T11:38:22.908Z,98704.80
2023-01-30T11:41:02.464Z,98702.20
2023-01-30T11:43:30.595Z,98701.40
2023-01-30T11:45:59.286Z,98692.20
2023-01-30T11:49:01.953Z,98684.00
2023-01-30T11:51:25.964Z,98681.20
2023-01-30T11:54:09.225Z,98672.80
2023-01-30T11:56:46.324Z,98669.60
2023-01-30T11:59:38.925Z,98658.20
2023-01-30T12:02:20.783Z,98648.40
2023-01-30T12:04:55.710Z,98638.00
2023-01-30T12:07:28.243Z,98643.60
2023-01-30T12:09:58.192Z,98638.40
2023-01-30T12:12:50.564Z,98633.80
2023-01-30T12:15:29.870Z,98625.20
2023-01-30T12:18:28.757Z,98629.80
2023-01-30T12:21:02.847Z,98631.20
2023-01-30T12:23:59.996Z,98629.00
2023-01-30T12:26:47.887Z,98637.20
2023-01-30T12:29:27.326Z,98634.00
2023-01-30T12:32:14.174Z,98633.20
2023-01-30T12:34:45.613Z,98641.00
2023-01-30T12:37:34.677Z,98651.40
2023-01-30T12:40:05.243Z,98665.40
2023-01-30T12:43:39.619Z,98651.20
2023-01-30T12:46:34.325Z,98652.00
2023-01-30T12:50:06.563Z,98650.80
2023-01-30T12:52:53.081Z,98652.60
2023-01-30T12:56:08.094Z,98640.40
2023-01-30T12:59:24.067Z,98637.40
2023-01-30T13:02:33.140Z,98642.40
2023-01-30T13:05:23.865Z,98630.40
2023-01-30T13:07:54.429Z,98629.80
2023-01-30T13:11:20.753Z,98630.20
2023-01-30T13:14:05.703Z,98628.80
2023-01-30T13:17:11.909Z,98629.80
2023-01-30T13:19:51.918Z,98633.20
2023-01-30T13:22:38.998Z,98640.20
2023-01-30T13:25:29.753Z,98636.20
2023-01-30T13:28:03.792Z,98635.80
2023-01-30T13:30:36.255Z,98635.60
2023-01-30T13:33:16.187Z,98645.00
2023-01-30T13:35:52.470Z,98644.80
2023-01-30T13:38:27.947Z,98644.40
2023-01-30T13:41:03.781Z,98654.40
2023-01-30T13:43:40.424Z,98642.80
2023-01-30T13:46:17.074Z,98629.40
2023-01-30T13:49:13.235Z,98621.00
2023-01-30T13:51:51.013Z,98627.60
2023-01-30T13:54:54.793Z,98641.20
2023-01-30T13:57:50.821Z,98643.00
2023-01-30T14:00:36.103Z,98642.80
2023-01-30T14:03:04.085Z,98636.40
2023-01-30T14:05:59.226Z,98627.40
2023-01-30T14:08:49.130Z,98632.40
2023-01-30T14:11:41.631Z,98627.00
2023-01-30T14:14:25.251Z,98634.00
2023-01-30T14:16:58.380Z,98642.20
2023-01-30T14:19:44.016Z,98640.60
2023-01-30T14:22:26.812Z,98639.60
2023-01-30T14:25:23.066Z,98640.00
2023-01-30T14:27:59.653Z,98627.80
2023-01-30T14:30:52.248Z,98628.00
2023-01-30T14:33:23.222Z,98622.40
2023-01-30T14:35:54.371Z,98630.00
2023-01-30T14:38:22.671Z,98627.40
2023-01-30T14:41:01.997Z,98626.00
2023-01-30T14:43:42.065Z,98632.60
2023-01-30T14:46:15.858Z,98642.60
2023-01-30T14:48:50.448Z,98642.00
2023-01-30T14:51:24.411Z,98648.60
2023-01-30T14:54:12.937Z,98645.00
2023-01-30T14:56:56.439Z,98655.60
2023-01-30T15:00:14.392Z,98658.20
2023-01-30T15:02:59.918Z,98674.20
2023-01-30T15:05:44.547Z,98677.40
2023-01-30T15:08:19.968Z,98692.00
2023-01-30T15:11:18.730Z,98695.40
2023-01-30T15:13:57.251Z,98692.80
2023-01-30T15:17:19.650Z,98699.80
2023-01-30T15:20:28.987Z,98697.60
2023-01-30T15:23:36.530Z,98690.60
2023-01-30T15:26:35.159Z,98688.00
2023-01-30T15:29:56.100Z,98692.40
2023-01-30T15:32:31.368Z,98696.20
2023-01-30T15:35:16.460Z,98694.20
2023-01-30T15:37:53.549Z,98697.40
2023-01-30T15:40:28.872Z,98704.00
2023-01-30T15:43:35.650Z,98705.80
2023-01-30T15:46:27.915Z,98712.00
2023-01-30T15:49:28.099Z,98712.60
2023-01-30T15:52:02.931Z,98709.40
2023-01-30T15:54:31.882Z,98715.60
2023-01-30T15:57:01.083Z,98706.00
2023-01-30T15:59:40.345Z,98711.60
2023-01-30T16:02:19.027Z,98724.80
2023-01-30T16:04:47.073Z,98725.00
2023-01-30T16:07:26.699Z,98737.00
2023-01-30T16:10:06.814Z,98745.40
2023-01-30T16:12:40.957Z,98755.00
2023-01-30T16:15:19.949Z,98765.20
2023-01-30T16:18:18.683Z,98761.80
2023-01-30T16:21:01.665Z,98765.00
2023-01-30T16:23:52.074Z,98758.00
2023-01-30T16:26:22.065Z,98758.60
2023-01-30T16:29:00.603Z,98755.60
2023-01-30T16:31:34.998Z,98746.80
2023-01-30T16:34:03.853Z,98743.20
2023-01-30T16:36:40.299Z,98749.40
2023-01-30T16:39:37.226Z,98749.80
2023-01-30T16:42:38.139Z,98751.60
2023-01-30T16:45:12.601Z,98738.00
2023-01-30T16:47:41.610Z,98738.60
2023-01-30T16:50:23.090Z,98752.40
2023-01-30T16:52:55.128Z,98763.60
2023-01-30T16:55:31.658Z,98765.00
2023-01-30T16:58:08.028Z,98762.40
2023-01-30T17:00:40.590Z,98760.20
2023-01-30T17:03:31.693Z,98758.20
2023-01-30T17:06:06.576Z,98757.20
2023-01-30T17:08:41.483Z,98754.00
2023-01-30T17:11:34.203Z,98760.40
2023-01-30T17:14:14.431Z,98755.40
2023-01-30T17:16:49.401Z,98754.80
2023-01-30T17:19:20.049Z,98753.40
2023-01-30T17:21:58.492Z,98754.60
2023-01-30T17:24:38.420Z,98758.40
2023-01-30T17:27:16.258Z,98754.60
2023-01-30T17:29:54.267Z,98760.60
2023-01-30T17:32:31.806Z,98767.00
2023-01-30T17:35:04.054Z,98780.20
2023-01-30T17:37:37.244Z,98769.60
2023-01-30T17:40:33.814Z,98767.40
2023-01-30T17:43:04.412Z,98775.20
2023-01-30T17:45:39.345Z,98782.80
2023-01-30T17:48:13.480Z,98793.20
2023-01-30T17:50:41.860Z,98788.80
2023-01-30T17:53:11.774Z,98801.20
2023-01-30T17:55:41.719Z,98809.00
2023-01-30T17:58:20.863Z,98812.00
2023-01-30T18:00:53.134Z,98819.00
2023-01-30T18:03:28.167Z,98817.80
2023-01-30T18:06:05.265Z,98824.40
2023-01-30T18:08:57.187Z,98828.20
2023-01-30T18:11:27.032Z,98833.20
2023-01-30T18:13:57.586Z,98836.40
2023-01-30T18:16:33.884Z,98835.60
2023-01-30T18:19:24.329Z,98832.20
2023-01-30T18:21:52.984Z,98825.80
2023-01-30T18:24:21.001Z,98828.40
2023-01-30T18:26:49.023Z,98827.80
2023-01-30T18:29:16.998Z,98826.20
2023-01-30T18:31:47.670Z,98831.20
2023-01-30T18:34:15.633Z,98841.80
2023-01-30T18:36:43.713Z,98840.20
2023-01-30T18:39:19.007Z,98843.20
2023-01-30T18:41:46.907Z,98840.00
2023-01-30T18:44:14.933Z,98842.20
2023-01-30T18:46:42.905Z,98847.80
2023-01-30T18:49:10.848Z,98850.80
2023-01-30T18:51:40.374Z,98860.40
2023-01-30T18:54:08.382Z,98863.60
2023-01-30T18:56:38.931Z,98863.40
2023-01-30T18:59:10.343Z,98865.60
2023-01-30T19:01:42.614Z,98864.80
2023-01-30T19:04:11.784Z,98874.00
2023-01-30T19:06:44.378Z,98881.60
2023-01-30T19:09:15.213Z,98886.80
2023-01-30T19:12:01.855Z,98891.40
2023-01-30T19:14:36.534Z,98899.80
2023-01-30T19:17:07.157Z,98904.40
2023-01-30T19:19:37.204Z,98905.80
2023-01-30T19:22:05.286Z,98909.60
2023-01-30T19:24:33.270Z,98910.40
2023-01-30T19:27:08.424Z,98916.60
2023-01-30T19:29:47.908Z,98917.20
2023-01-30T19:32:33.919Z,98914.60
2023-01-30T19:35:05.077Z,98921.80
2023-01-30T19:37:45.887Z,98930.40
2023-01-30T19:40:22.568Z,98939.20
2023-01-30T19:42:54.686Z,98943.40
2023-01-30T19:45:30.363Z,98950.40
2023-01-30T19:48:01.859Z,98951.00
2023-01-30T19:50:35.484Z,98958.20
2023-01-30T19:53:05.337Z,98963.00
2023-01-30T19:55:35.290Z,98981.80
2023-01-30T19:58:14.021Z,98976.60
2023-01-30T20:00:46.563Z,98985.20
2023-01-30T20:03:16.400Z,98987.00
2023-01-30T20:05:47.304Z,98996.60
2023-01-30T20:08:31.934Z,99002.40
2023-01-30T20:11:13.594Z,99001.80
2023-01-30T20:13:43.859Z,99003.80
2023-01-30T20:16:19.668Z,99007.00
2023-01-30T20:19:05.809Z,99014.00
2023-01-30T20:21:43.323Z,99013.20
2023-01-30T20:24:14.693Z,99019.80
2023-01-30T20:26:49.866Z,99012.60
2023-01-30T20:29:21.274Z,99023.80
2023-01-30T20:31:53.797Z,99029.00
2023-01-30T20:34:26.047Z,99036.80
2023-01-30T20:36:56.557Z,99042.20
2023-01-30T20:39:27.419Z,99051.00
2023-01-30T20:41:56.611Z,99054.20
2023-01-30T20:44:36.269Z,99057.40
2023-01-30T20:47:06.501Z,99066.40
2023-01-30T20:49:34.815Z,99073.20
2023-01-30T20:52:03.121Z,99081.20
2023-01-30T20:54:31.349Z,99078.20
2023-01-30T20:57:00.148Z,99091.00
2023-01-30T20:59:28.707Z,99091.20
2023-01-30T21:01:56.751Z,99094.00
2023-01-30T21:04:24.763Z,99104.80
2023-01-30T21:06:53.373Z,99108.20
2023-01-30T21:09:23.428Z,99106.60
2023-01-30T21:11:53.576Z,99104.00
2023-01-30T21:14:23.013Z,99110.60
2023-01-30T21:16:53.854Z,99117.20
2023-01-30T21:19:27.231Z,99118.80
2023-01-30T21:21:57.429Z,99126.20
2023-01-30T21:24:28.809Z,99131.60
2023-01-30T21:26:57.317Z,99137.80
2023-01-30T21:29:28.275Z,99143.60
2023-01-30T21:31:58.741Z,99146.40
2023-01-30T21:34:27.035Z,99148.00
2023-01-30T21:37:13.638Z,99147.20
2023-01-30T21:40:00.548Z,99165.40
2023-01-30T21:42:47.243Z,99174.40
2023-01-30T21:45:15.751Z,99182.60
2023-01-30T21:47:43.675Z,99186.00
2023-01-30T21:50:11.738Z,99188.80
2023-01-30T21:52:40.086Z,99199.20
2023-01-30T21:55:08.848Z,99194.60
2023-01-30T21:57:36.827Z,99198.20
2023-01-30T22:00:06.000Z,99205.60
2023-01-30T22:02:33.860Z,99203.20
2023-01-30T22:05:02.307Z,99211.80
2023-01-30T22:07:31.740Z,99219.40
2023-01-30T22:10:02.445Z,99219.20
2023-01-30T22:12:32.168Z,99229.80
2023-01-30T22:15:00.170Z,99231.00
2023-01-30T22:17:28.078Z,99233.00
2023-01-30T22:19:55.991Z,99233.00
2023-01-30T22:22:25.372Z,99243.60
2023-01-30T22:24:53.291Z,99245.40
2023-01-30T22:27:21.262Z,99254.80
2023-01-30T22:29:49.458Z,99257.80
2023-01-30T22:32:17.308Z,99260.00
2023-01-30T22:34:45.386Z,99262.60
2023-01-30T22:37:13.384Z,99258.40
2023-01-30T22:39:41.220Z,99264.80
2023-01-30T22:42:09.370Z,99271.80
2023-01-30T22:44:38.207Z,99276.40
2023-01-30T22:47:06.238Z,99284.20
2023-01-30T22:49:34.043Z,99288.20
2023-01-30T22:52:01.928Z,99292.20
2023-01-30T22:54:29.801Z,99293.80
2023-01-30T22:56:57.646Z,99303.20
2023-01-30T22:59:25.511Z,99304.60
2023-01-30T23:01:53.593Z,99303.80
2023-01-30T23:04:23.837Z,99304.00
2023-01-30T23:06:52.556Z,99311.40
2023-01-30T23:09:23.490Z,99314.40
2023-01-30T23:12:14.643Z,99311.40
2023-01-30T23:14:43.077Z,99315.40
2023-01-30T23:17:30.375Z,99319.80
2023-01-30T23:19:58.574Z,99319.40
2023-01-30T23:22:26.558Z,99316.40
2023-01-30T23:24:54.548Z,99319.20
2023-01-30T23:27:22.643Z,99324.80
2023-01-30T23:29:50.958Z,99324.80
2023-01-30T23:32:20.289Z,99326.60
2023-01-30T23:34:48.507Z,99332.80
2023-01-30T23:37:17.288Z,99337.60
2023-01-30T23:39:45.668Z,99346.60
2023-01-30T23:42:13.719Z,99358.20
2023-01-30T23:44:41.556Z,99359.20
2023-01-30T23:47:09.397Z,99357.80
2023-01-30T23:49:37.721Z,99360.20
2023-01-30T23:52:05.835Z,99365.20
2023-01-30T23:54:33.758Z,99357.80
2023-01-30T23:57:01.718Z,99361.20
2023-01-30T23:59:29.632Z,99357.00
